Latest Weather Observations for King Island Airport

IDT60801

Issued at 6:05 am EST Thursday 2 October 2014 (issued every 30 minutes, with the page automatically refreshed every 10 minutes)

About weather observations | Map of weather stations | Latest weather observations for TAS | Other Formats
Station Details ID: 098017 Name: KING ISLAND AIRPORT Lat: -39.88 Lon: 143.88 Height: 37.0 m
Data from the previous 72 hours. | See also: Recent months at King Island Airport
Date/Time
EST
Temp
°C
App
Temp
°C
Dew
Point
Rel
Hum
%
Delta-T
°C
Wind Press
QNH
hPa
Press
MSL
hPa
Rain
since 9 am
mm
Dir
 
Spd
km/h
Gust
km/h
Spd
kts
Gust
kts
02/06:00am 11.0 4.0 9.9 93 0.6 WSW 37 52 20 28 1021.0 1021.0 1.0
02/05:55am 11.3 4.7 10.0 92 0.7 WSW 35 52 19 28 1020.9 1020.9 1.0
02/05:50am 11.6 6.4 10.2 91 0.7 WSW 28 52 15 28 1020.8 1020.8 1.0
02/05:46am 11.8 7.0 10.4 91 0.7 W 26 33 14 18 1020.7 1020.7 1.0
02/05:30am 12.0 6.0 10.2 89 0.9 W 32 52 17 28 1020.7 1020.7 1.0
02/05:04am 12.5 7.0 9.3 81 1.6 W 28 46 15 25 1020.4 1020.4 1.0
02/05:00am 12.5 6.6 9.1 80 1.7 W 30 46 16 25 1020.4 1020.4 1.0
02/04:30am 12.4 5.7 8.3 76 2.0 W 33 48 18 26 1020.4 1020.4 1.0
02/04:00am 12.0 5.6 9.2 83 1.4 W 33 46 18 25 1020.5 1020.5 1.0
02/03:34am 12.2 6.4 9.6 84 1.3 W 30 48 16 26 1020.4 1020.4 1.0
02/03:30am 12.3 6.0 9.7 84 1.3 W 33 48 18 26 1020.4 1020.4 1.0
02/03:00am 11.9 5.6 9.6 86 1.2 W 33 46 18 25 1020.7 1020.7 1.0
02/02:30am 11.8 5.8 10.0 89 0.9 W 32 41 17 22 1020.9 1020.9 1.0
02/02:00am 12.3 7.8 9.9 85 1.2 W 24 33 13 18 1021.1 1021.1 1.0
02/01:40am 12.2 6.9 9.9 86 1.2 W 28 46 15 25 1021.5 1021.5 1.0
02/01:30am 12.0 6.7 9.9 87 1.1 W 28 37 15 20 1021.6 1021.6 1.0
02/01:07am 11.8 7.1 10.5 92 0.7 W 26 35 14 19 1021.8 1021.8 1.0
02/01:00am 11.9 6.8 10.5 91 0.7 W 28 39 15 21 1021.8 1021.8 1.0
02/12:51am 12.0 6.4 10.2 89 0.9 W 30 39 16 21 1021.9 1021.9 0.8
02/12:30am 12.1 6.0 10.3 89 0.9 W 33 44 18 24 1021.9 1021.9 0.6
02/12:00am 11.8 5.9 10.4 91 0.7 W 32 43 17 23 1022.0 1022.0 0.6
 
Date/Time
EST
Temp
°C
App
Temp
°C
Dew
Point
Rel
Hum
%
Delta-T
°C
Wind Press
QNH
hPa
Press
MSL
hPa
Rain
since 9 am
mm
Dir
 
Spd
km/h
Gust
km/h
Spd
kts
Gust
kts
01/11:45pm 11.5 5.9 10.2 92 0.7 W 30 43 16 23 1022.1 1022.1 0.6
01/11:30pm 11.7 5.2 10.3 91 0.7 W 35 57 19 31 1022.3 1022.3 0.6
01/11:29pm 11.8 5.3 10.4 91 0.7 W 35 57 19 31 1022.3 1022.3 0.6
01/11:26pm 12.1 6.2 10.5 90 0.8 W 32 57 17 31 1022.2 1022.2 0.4
01/11:00pm 11.8 5.9 10.4 91 0.7 W 32 44 17 24 1022.3 1022.3 0.4
01/10:43pm 11.4 5.8 10.0 91 0.7 W 30 46 16 25 1022.4 1022.4 0.2
01/10:32pm 11.4 5.1 9.8 90 0.8 W 33 54 18 29 1022.4 1022.4 0.2
01/10:30pm 11.6 5.4 10.0 90 0.8 W 33 54 18 29 1022.4 1022.4 0.2
01/10:27pm 11.8 5.6 10.0 89 0.9 W 33 54 18 29 1022.4 1022.4 0.2
01/10:00pm 11.9 5.9 10.1 89 0.9 W 32 48 17 26 1022.3 1022.3 0.2
01/09:44pm 11.8 5.2 9.9 88 1.0 W 35 56 19 30 1022.5 1022.5 0.2
01/09:30pm 12.0 5.8 10.1 88 1.0 W 33 50 18 27 1022.5 1022.5 0.2
01/09:00pm 11.6 5.5 9.7 88 1.0 W 32 43 17 23 1022.7 1022.7 0.2
01/08:30pm 11.7 5.3 9.4 86 1.2 W 33 52 18 28 1022.7 1022.7 0.2
01/08:18pm 11.9 6.1 9.6 86 1.2 W 30 48 16 26 1022.9 1022.9 0.2
01/08:00pm 11.6 5.2 9.2 85 1.2 W 33 44 18 24 1022.9 1022.9 0.2
01/07:33pm 12.1 5.7 8.4 78 1.8 W 32 50 17 27 1023.0 1023.0 0.2
01/07:30pm 12.2 5.7 8.3 77 1.9 W 32 41 17 22 1022.9 1022.9 0.2
01/07:05pm 12.2 5.6 7.9 75 2.1 W 32 50 17 27 1022.7 1022.7 0.2
01/07:00pm 12.3 5.8 8.2 76 2.0 W 32 41 17 22 1022.7 1022.7 0.2
01/06:30pm 12.1 5.3 7.6 74 2.2 W 33 46 18 25 1022.3 1022.3 0.2
01/06:00pm 12.2 5.5 7.3 72 2.4 W 32 46 17 25 1022.5 1022.5 0.2
01/05:55pm 12.2 6.3 7.3 72 2.4 W 28 46 15 25 1022.5 1022.5 0.2
01/05:30pm 12.1 6.0 6.6 69 2.6 W 28 37 15 20 1022.5 1022.5 0.2
01/05:00pm 12.5 6.4 6.8 68 2.7 W 28 39 15 21 1022.4 1022.4 0.2
01/04:30pm 12.4 6.1 5.8 64 3.1 W 28 39 15 21 1022.4 1022.4 0.2
01/04:00pm 12.9 5.7 5.1 59 3.6 WSW 32 43 17 23 1022.4 1022.4 0.2
01/03:30pm 13.4 6.7 5.8 60 3.6 WSW 30 39 16 21 1022.3 1022.3 0.2
01/03:00pm 13.2 6.2 5.9 61 3.4 W 32 43 17 23 1022.3 1022.3 0.2
01/02:30pm 12.9 5.9 6.0 63 3.3 WSW 32 44 17 24 1022.4 1022.4 0.2
01/02:00pm 12.7 7.2 7.4 70 2.6 WSW 26 37 14 20 1022.2 1022.2 0.2
01/01:37pm 12.2 5.3 6.3 67 2.8 WSW 32 50 17 27 1022.5 1022.5 0.2
01/01:30pm 12.5 5.9 5.9 64 3.1 W 30 37 16 20 1022.4 1022.4 0.2
01/01:00pm 12.1 4.8 5.3 63 3.1 WSW 33 46 18 25 1022.5 1022.5 0.2
01/12:30pm 12.0 4.7 5.6 65 3.0 WSW 33 43 18 23 1022.3 1022.3 0.2
01/12:00pm 12.2 5.0 5.1 62 3.3 WSW 32 41 17 22 1022.2 1022.2 0.2
01/11:36am 10.8 3.7 6.6 75 2.0 WSW 33 52 18 28 1022.4 1022.4 0.0
01/11:30am 10.8 3.4 6.6 75 2.0 WSW 35 52 19 28 1022.5 1022.5 0.0
01/11:25am 12.1 5.2 6.4 68 2.7 WSW 32 52 17 28 1022.3 1022.3 0.0
01/11:00am 12.1 6.1 5.3 63 3.1 WSW 26 33 14 18 1022.5 1022.5 0.0
01/10:38am 10.6 3.6 6.0 73 2.1 WSW 32 50 17 27 1022.3 1022.3 0.0
01/10:30am 10.7 3.1 5.9 72 2.2 WSW 35 50 19 27 1022.1 1022.1 0.0
01/10:00am 12.0 4.7 4.5 60 3.4 WSW 32 39 17 21 1021.8 1021.8 0.0
01/09:30am 12.3 5.0 4.5 59 3.6 WSW 32 48 17 26 1021.4 1021.4 0.0
01/09:00am 11.8 3.8 3.6 57 3.6 WSW 35 48 19 26 1021.1 1021.1 7.4
01/08:30am 11.8 4.2 4.1 59 3.5 WSW 33 44 18 24 1020.6 1020.6 7.4
01/08:06am 11.4 5.1 5.5 67 2.7 SW 28 48 15 26 1020.3 1020.3 7.4
01/08:00am 11.2 5.7 5.9 70 2.5 SW 24 33 13 18 1020.2 1020.2 7.4
01/07:30am 9.6 1.7 4.4 70 2.3 WSW 35 56 19 30 1019.8 1019.8 7.4
01/07:21am 10.8 3.7 5.3 69 2.5 WSW 32 52 17 28 1019.7 1019.7 7.4
01/07:00am 10.2 3.2 2.1 57 3.4 SW 28 37 15 20 1019.3 1019.3 7.4
01/06:30am 10.0 2.9 3.3 63 2.9 SW 30 46 16 25 1018.8 1018.8 7.4
01/06:00am 9.5 1.9 3.0 64 2.8 SW 32 52 17 28 1018.2 1018.2 7.4
01/05:49am 9.9 2.5 4.1 67 2.6 SW 32 54 17 29 1018.0 1018.0 7.4
01/05:30am 9.9 2.2 3.2 63 2.9 WSW 33 48 18 26 1017.6 1017.6 7.4
01/05:10am 10.1 2.6 4.3 67 2.6 WSW 33 52 18 28 1017.3 1017.3 7.4
01/05:00am 9.8 1.9 4.2 68 2.5 WSW 35 50 19 27 1017.1 1017.1 7.4
01/04:55am 10.0 2.3 2.4 59 3.2 SW 32 50 17 27 1016.9 1016.9 7.4
01/04:30am 9.9 1.5 1.8 57 3.4 SW 35 46 19 25 1016.6 1016.6 7.4
01/04:02am 9.0 1.1 4.4 73 2.0 WSW 35 54 19 29 1016.0 1016.0 7.4
01/04:00am 9.2 0.9 4.4 72 2.1 WSW 37 54 20 29 1016.0 1016.0 7.4
01/03:32am 9.8 2.1 2.4 60 3.1 SW 32 50 17 27 1015.5 1015.5 7.4
01/03:30am 10.0 2.2 3.1 62 3.0 SW 33 50 18 27 1015.5 1015.5 7.4
01/03:00am 9.9 0.8 2.0 58 3.3 SW 39 57 21 31 1015.2 1015.2 7.4
01/02:40am 9.8 1.9 2.4 60 3.1 SW 33 54 18 29 1014.9 1014.9 7.4
01/02:30am 9.7 1.9 3.0 63 2.9 SW 33 48 18 26 1014.8 1014.8 7.4
01/02:04am 9.5 1.9 4.1 69 2.4 SW 33 56 18 30 1014.3 1014.3 7.4
01/02:00am 9.6 2.1 4.6 71 2.2 WSW 33 46 18 25 1014.3 1014.3 7.4
01/01:49am 9.1 0.7 3.7 69 2.3 WSW 37 56 20 30 1014.2 1014.2 7.4
01/01:30am 9.3 0.6 3.9 69 2.4 SW 39 54 21 29 1014.0 1014.0 7.4
01/01:00am 9.3 0.0 3.1 65 2.7 WSW 41 59 22 32 1013.7 1013.7 7.4
01/12:34am 9.9 -0.1 2.3 59 3.2 SW 44 63 24 34 1013.1 1013.1 7.4
01/12:30am 9.8 -0.7 1.7 57 3.4 WSW 46 63 25 34 1013.1 1013.1 7.4
01/12:06am 9.3 0.3 2.6 63 2.8 SW 39 57 21 31 1012.7 1012.7 7.4
01/12:00am 9.2 -0.6 2.1 61 3.0 SW 43 57 23 31 1012.6 1012.6 7.4
 
Date/Time
EST
Temp
°C
App
Temp
°C
Dew
Point
Rel
Hum
%
Delta-T
°C
Wind Press
QNH
hPa
Press
MSL
hPa
Rain
since 9 am
mm
Dir
 
Spd
km/h
Gust
km/h
Spd
kts
Gust
kts
30/11:32pm 9.3 0.6 3.9 69 2.4 WSW 39 63 21 34 1011.9 1011.9 7.4
30/11:30pm 9.3 0.8 3.1 65 2.7 WSW 37 54 20 29 1011.8 1011.8 7.4
30/11:08pm 9.5 0.9 4.9 73 2.1 WSW 39 57 21 31 1011.6 1011.6 7.4
30/11:00pm 9.6 0.5 3.8 67 2.5 WSW 41 57 22 31 1011.4 1011.4 7.4
30/10:30pm 9.3 -0.2 3.7 68 2.4 WSW 43 59 23 32 1011.0 1011.0 7.4
30/10:10pm 8.7 0.3 3.5 70 2.2 WSW 37 56 20 30 1010.8 1010.8 7.4
30/10:00pm 8.4 -0.5 3.3 70 2.2 WSW 39 54 21 29 1010.6 1010.6 7.4
30/09:36pm 8.5 -0.2 4.1 74 1.9 SW 39 57 21 31 1010.2 1010.2 7.4
30/09:30pm 8.5 -0.6 4.1 74 1.9 SW 41 57 22 31 1010.1 1010.1 7.4
30/09:00pm 8.6 -0.6 5.4 80 1.4 SW 43 69 23 37 1009.4 1009.5 7.4
30/08:43pm 9.2 1.5 5.2 76 1.8 W 35 54 19 29 1008.9 1009.0 7.4
30/08:30pm 7.6 0.3 4.6 81 1.3 W 32 41 17 22 1008.9 1009.0 7.4
30/08:04pm 7.2 0.2 4.2 81 1.3 WSW 30 50 16 27 1009.0 1009.1 7.0
30/08:01pm 6.6 -0.9 3.6 81 1.3 WSW 32 50 17 27 1008.9 1009.0 6.8
30/08:00pm 6.7 -0.9 3.7 81 1.3 WSW 33 50 18 27 1008.8 1008.9 6.8
30/07:59pm 6.7 -1.4 3.5 80 1.4 WSW 35 50 19 27 1008.8 1008.9 6.8
30/07:43pm 7.2 -4.9 3.4 77 1.6 W 56 78 30 42 1008.6 1008.7 5.8
30/07:42pm 7.3 -5.0 3.4 76 1.7 W 57 78 31 42 1008.6 1008.7 5.6
30/07:40pm 7.8 -5.2 3.5 74 1.8 W 61 78 33 42 1008.5 1008.6 5.2
30/07:38pm 9.4 1.4 4.0 69 2.4 W 35 61 19 33 1008.2 1008.3 5.0
30/07:30pm 9.6 2.7 4.8 72 2.2 WSW 30 41 16 22 1007.8 1007.9 5.0
30/07:04pm 9.3 1.8 4.5 72 2.1 W 33 52 18 28 1007.5 1007.6 5.0
30/07:00pm 9.8 1.5 4.4 69 2.4 W 37 52 20 28 1007.3 1007.4 5.0
30/06:35pm 9.9 0.8 2.0 58 3.3 W 39 57 21 31 1006.6 1006.7 4.8
30/06:30pm 10.1 0.9 3.6 64 2.8 W 41 56 22 30 1006.6 1006.7 4.8
30/06:13pm 10.2 0.8 4.6 68 2.5 W 43 61 23 33 1006.3 1006.4 4.8
30/06:00pm 10.5 1.1 4.2 65 2.8 W 43 57 23 31 1006.0 1006.1 4.8
30/05:30pm 11.2 2.4 3.7 60 3.3 W 39 57 21 31 1005.5 1005.6 4.8
30/05:28pm 11.2 2.7 3.3 58 3.5 W 37 56 20 30 1005.5 1005.6 4.8
30/05:00pm 10.9 2.4 3.2 59 3.4 W 37 52 20 28 1005.0 1005.0 4.8
30/04:30pm 11.6 1.4 3.4 57 3.6 W 46 67 25 36 1004.5 1004.5 4.8
30/04:00pm 12.2 3.1 6.0 66 2.9 W 43 61 23 33 1003.9 1003.9 4.8
30/03:38pm 11.6 1.9 5.9 68 2.7 WSW 46 65 25 35 1003.3 1003.3 4.8
30/03:30pm 11.7 2.6 6.6 71 2.4 WSW 44 61 24 33 1003.0 1003.0 4.8
30/03:12pm 10.5 1.4 5.9 73 2.1 W 43 63 23 34 1002.9 1002.9 4.6
30/03:00pm 11.8 3.9 6.1 68 2.7 W 37 54 20 29 1002.3 1002.3 4.6
30/02:30pm 9.4 -1.6 6.8 84 1.2 WSW 54 78 29 42 1001.4 1001.4 4.6
30/02:23pm 9.7 -1.1 7.5 86 1.0 W 54 83 29 45 1001.5 1001.5 4.6
30/02:00pm 9.7 -0.1 8.5 92 0.6 W 50 83 27 45 1001.0 1001.0 4.0
30/01:47pm 11.1 2.7 9.7 91 0.7 W 44 63 24 34 1001.0 1001.0 2.8
30/01:45pm 11.2 2.5 9.8 91 0.7 W 46 63 25 34 1000.9 1000.9 2.6
30/01:30pm 11.4 2.6 9.5 88 1.0 W 46 63 25 34 1000.1 1000.1 2.2
30/01:05pm 12.2 3.6 9.0 81 1.6 W 44 70 24 38 1000.2 1000.2 2.0
30/01:00pm 12.6 4.2 9.8 83 1.4 WNW 44 61 24 33 1000.1 1000.1 1.8
30/12:42pm 12.2 5.7 10.4 89 0.9 WNW 35 57 19 31 1000.0 1000.0 1.8
30/12:30pm 12.8 7.0 11.4 91 0.7 W 33 46 18 25 1000.1 1000.1 1.8
30/12:13pm 11.3 4.3 9.9 91 0.7 W 37 56 20 30 1000.2 1000.2 1.8
30/12:00pm 11.8 4.6 10.4 91 0.7 W 39 56 21 30 1000.4 1000.4 1.8
30/11:59am 11.9 4.7 10.5 91 0.7 W 39 56 21 30 1000.4 1000.4 1.8
30/11:48am 11.7 3.5 10.3 91 0.7 WNW 44 63 24 34 1000.6 1000.6 1.6
30/11:44am 12.3 3.5 11.0 92 0.7 WNW 48 67 26 36 1000.6 1000.6 1.4
30/11:32am 12.5 2.9 10.9 90 0.8 WNW 52 69 28 37 1000.6 1000.6 1.2
30/11:30am 12.7 3.6 11.1 90 0.8 WNW 50 69 27 37 1000.6 1000.6 1.2
30/11:25am 13.1 4.0 11.3 89 1.0 WNW 50 59 27 32 1000.6 1000.6 1.0
30/11:12am 13.9 3.6 11.6 86 1.2 NNW 57 76 31 41 1000.4 1000.4 0.4
30/11:00am 14.3 5.3 11.6 84 1.5 NNW 50 69 27 37 1000.1 1000.1 0.0
30/10:41am 14.0 6.4 11.9 87 1.1 NNW 43 61 23 33 1000.5 1000.5 0.0
30/10:30am 14.4 6.8 11.7 84 1.5 NNW 43 56 23 30 1000.8 1000.8 0.0
30/10:00am 15.2 7.1 12.0 81 1.7 NNW 46 61 25 33 1001.4 1001.4 0.0
30/09:47am 15.0 7.5 12.0 82 1.6 NNW 43 61 23 33 1001.8 1001.8 0.0
30/09:30am 14.7 6.1 11.8 83 1.6 NNW 48 61 26 33 1002.2 1002.2 0.0
30/09:11am 14.5 6.9 11.8 84 1.5 NNW 43 63 23 34 1002.4 1002.4 0.0
30/09:00am 14.4 6.8 11.9 85 1.4 NNW 43 56 23 30 1002.6 1002.6 0.0
30/08:30am 14.4 7.2 11.9 85 1.3 NNW 41 56 22 30 1002.9 1002.9 0.0
30/08:00am 14.1 6.8 11.6 85 1.3 NNW 41 52 22 28 1003.3 1003.3 0.0
30/07:35am 14.0 6.3 11.5 85 1.3 NNW 43 61 23 33 1003.6 1003.6 0.0
30/07:30am 13.9 6.0 11.4 85 1.3 NNW 44 59 24 32 1003.6 1003.6 0.0
30/07:00am 13.6 5.7 11.3 86 1.2 NNW 44 59 24 32 1004.2 1004.2 0.0
30/06:30am 13.5 6.0 11.0 85 1.3 NNW 41 54 22 29 1004.3 1004.3 0.0
30/06:07am 13.4 5.9 10.9 85 1.3 NNW 41 59 22 32 1004.3 1004.3 0.0
30/06:00am 13.3 5.4 10.8 85 1.3 NNW 43 59 23 32 1004.4 1004.4 0.0
30/05:30am 13.3 4.8 10.7 84 1.4 NNW 46 59 25 32 1004.7 1004.7 0.0
30/05:02am 13.3 5.6 10.3 82 1.6 NNW 41 59 22 32 1004.5 1004.5 0.0
30/05:00am 13.3 5.3 10.3 82 1.6 NNW 43 59 23 32 1004.6 1004.6 0.0
30/04:30am 13.2 6.0 10.4 83 1.5 NNW 39 56 21 30 1004.9 1004.9 0.0
30/04:00am 13.0 6.2 10.5 85 1.3 NNW 37 48 20 26 1005.4 1005.5 0.0
30/03:30am 13.2 5.6 10.6 84 1.4 NNW 41 54 22 29 1005.6 1005.7 0.0
30/03:00am 13.2 6.3 10.4 83 1.5 NNW 37 50 20 27 1006.0 1006.1 0.0
30/02:30am 13.2 7.3 10.6 84 1.4 NNW 32 46 17 25 1006.4 1006.5 0.0
30/02:00am 13.4 7.3 10.6 83 1.5 NNW 33 44 18 24 1007.1 1007.2 0.0
30/01:30am 13.5 7.9 10.1 80 1.8 NW 30 37 16 20 1007.5 1007.6 0.0
30/01:00am 13.2 7.2 10.2 82 1.6 NW 32 39 17 21 1007.9 1008.0 0.0
30/12:30am 13.5 6.9 9.9 79 1.9 NW 35 44 19 24 1008.2 1008.3 0.0
30/12:00am 13.6 6.4 9.3 75 2.2 WNW 37 52 20 28 1008.7 1008.8 0.0
 
Date/Time
EST
Temp
°C
App
Temp
°C
Dew
Point
Rel
Hum
%
Delta-T
°C
Wind Press
QNH
hPa
Press
MSL
hPa
Rain
since 9 am
mm
Dir
 
Spd
km/h
Gust
km/h
Spd
kts
Gust
kts
29/11:30pm 13.4 6.7 9.6 78 1.9 WNW 35 44 19 24 1009.1 1009.2 0.0
29/11:00pm 13.2 6.8 9.3 77 2.0 WNW 33 43 18 23 1009.5 1009.6 0.0
29/10:30pm 13.6 6.5 9.5 76 2.1 WNW 37 52 20 28 1009.8 1009.9 0.0
29/10:04pm 13.6 6.1 9.3 75 2.2 WNW 39 59 21 32 1010.4 1010.4 0.0
29/10:00pm 13.8 6.4 10.0 78 2.0 WNW 39 52 21 28 1010.4 1010.4 0.0
29/09:30pm 13.8 7.2 10.0 78 2.0 NW 35 43 19 23 1010.4 1010.4 0.0
29/09:00pm 13.7 6.3 9.7 77 2.1 WNW 39 48 21 26 1010.4 1010.4 0.0
29/08:30pm 13.4 6.4 9.8 79 1.9 WNW 37 50 20 27 1010.3 1010.3 0.0
29/08:00pm 13.3 7.2 10.5 83 1.5 WNW 33 41 18 22 1009.9 1010.0 0.0
29/07:30pm 13.3 7.7 10.3 82 1.6 WNW 30 39 16 21 1009.7 1009.8 0.0
29/07:00pm 13.3 7.7 10.3 82 1.6 NW 30 37 16 20 1009.2 1009.3 0.0
29/06:30pm 13.3 7.7 10.1 81 1.7 NW 30 35 16 19 1009.2 1009.3 0.0
29/06:00pm 13.7 8.0 9.7 77 2.1 NW 30 37 16 20 1009.0 1009.1 0.0
29/05:30pm 14.1 8.0 9.7 75 2.3 NW 32 39 17 21 1009.0 1009.1 0.0
29/05:00pm 14.5 8.4 9.9 74 2.4 NW 32 39 17 21 1009.2 1009.3 0.0
29/04:30pm 14.9 8.2 9.7 71 2.7 WNW 35 46 19 25 1009.3 1009.4 0.0
29/04:00pm 15.2 8.6 10.0 71 2.7 WNW 35 46 19 25 1009.4 1009.5 0.0
29/03:30pm 14.7 7.2 9.5 71 2.7 NW 39 48 21 26 1009.7 1009.8 0.0
29/03:00pm 15.4 7.7 8.6 64 3.5 NW 39 50 21 27 1010.1 1010.1 0.0
29/02:30pm 15.5 7.2 9.4 67 3.2 NW 43 52 23 28 1010.2 1010.2 0.0
29/02:00pm 15.7 7.7 8.9 64 3.5 NW 41 50 22 27 1010.3 1010.3 0.0
29/01:30pm 15.8 8.1 8.8 63 3.6 NW 39 50 21 27 1010.5 1010.5 0.0
29/01:00pm 15.6 8.1 9.3 66 3.3 NW 39 52 21 28 1010.5 1010.5 0.0
29/12:30pm 15.5 8.3 9.2 66 3.2 NW 37 48 20 26 1010.6 1010.6 0.0
29/12:00pm 15.0 8.1 8.9 67 3.1 WNW 35 44 19 24 1010.6 1010.6 0.0
29/11:40am 14.4 7.6 9.2 71 2.7 NW 35 43 19 23 1010.8 1010.8 0.0
29/11:30am 14.3 7.3 8.5 68 2.9 WNW 35 44 19 24 1010.9 1010.9 0.0
29/11:00am 14.7 6.2 8.6 67 3.1 WNW 43 54 23 29 1010.9 1010.9 0.0
29/10:30am 14.2 7.1 8.2 67 3.0 WNW 35 48 19 26 1010.8 1010.8 0.0
29/10:00am 14.5 7.4 8.2 66 3.2 WNW 35 43 19 23 1010.7 1010.7 0.0
29/09:30am 14.5 7.7 7.5 63 3.5 W 33 44 18 24 1010.5 1010.5 0.0
29/09:00am 14.3 7.3 8.5 68 2.9 W 35 46 19 25 1010.3 1010.3 1.4
29/08:30am 13.9 6.4 7.9 67 3.0 W 37 52 20 28 1009.9 1010.0 1.4
29/08:00am 13.3 6.3 8.6 73 2.4 WNW 35 54 19 29 1009.6 1009.7 1.4
29/07:57am 13.1 6.5 8.4 73 2.3 WNW 33 54 18 29 1009.6 1009.7 1.4
29/07:30am 13.4 7.0 9.5 77 2.0 WNW 33 43 18 23 1009.4 1009.5 1.4
29/07:00am 12.4 5.9 8.3 76 2.0 WNW 32 41 17 22 1009.0 1009.1 1.4
29/06:30am 12.6 5.9 8.3 75 2.1 W 33 44 18 24 1008.9 1009.0 1.4
29/06:19am 12.4 5.7 7.5 72 2.4 W 32 52 17 28 1008.8 1008.9 1.4

Other Formats:

Comma delimited format used in spreadsheet applications
http://www.bom.gov.au/fwo/IDT60801/IDT60801.94850.axf

JavaScript Object Notation format (JSON) in row-major order
http://www.bom.gov.au/fwo/IDT60801/IDT60801.94850.json